createdAt,value
2023-03-04T00:47:51.627Z,22.10
2023-03-04T00:50:24.561Z,22.00
2023-03-04T00:52:52.952Z,22.00
2023-03-04T00:55:21.857Z,22.00
2023-03-04T00:57:50.286Z,22.00
2023-03-04T01:47:11.435Z,22.00
2023-03-04T01:49:40.409Z,22.00
2023-03-04T01:52:13.447Z,22.00
2023-03-04T01:54:42.626Z,22.00
2023-03-04T01:57:19.388Z,22.00
2023-03-04T01:59:48.820Z,22.00
2023-03-04T02:46:20.514Z,22.00
2023-03-04T02:48:49.733Z,21.90
2023-03-04T02:51:18.455Z,21.90
2023-03-04T02:53:46.867Z,21.90
2023-03-04T02:56:15.392Z,21.90
2023-03-04T02:58:43.821Z,21.90
2023-03-04T03:48:42.696Z,21.90
2023-03-04T03:51:11.159Z,21.80
2023-03-04T03:53:39.738Z,21.90
2023-03-04T03:56:09.034Z,21.90
2023-03-04T03:58:37.593Z,21.90
2023-03-04T04:46:31.349Z,21.80
2023-03-04T04:49:02.538Z,21.80
2023-03-04T04:51:31.550Z,21.80
2023-03-04T04:54:01.402Z,21.80
2023-03-04T04:56:30.862Z,21.80
2023-03-04T04:59:02.175Z,21.80
2023-03-04T05:46:55.094Z,21.70
2023-03-04T05:49:23.863Z,21.70
2023-03-04T05:51:52.503Z,21.70
2023-03-04T05:54:21.741Z,21.70
2023-03-04T05:56:50.310Z,21.70
2023-03-04T05:59:20.639Z,21.70
2023-03-04T06:01:49.476Z,21.80
2023-03-04T06:04:19.495Z,21.80
2023-03-04T06:06:48.173Z,21.80
2023-03-04T06:09:17.313Z,21.80
2023-03-04T06:11:45.835Z,21.80
2023-03-04T06:14:14.554Z,21.80
2023-03-04T06:16:43.193Z,21.80
2023-03-04T06:19:11.687Z,21.80
2023-03-04T06:21:41.950Z,21.80
2023-03-04T06:24:10.510Z,21.80
2023-03-04T06:26:38.996Z,21.80
2023-03-04T06:29:07.939Z,21.80
2023-03-04T06:31:36.600Z,21.80
2023-03-04T06:34:05.431Z,21.70
2023-03-04T06:36:33.870Z,21.70
2023-03-04T06:39:05.786Z,21.70
2023-03-04T06:41:35.033Z,21.70
2023-03-04T06:44:03.737Z,21.70
2023-03-04T06:46:33.977Z,21.70
2023-03-04T06:49:02.919Z,21.70
2023-03-04T06:51:31.697Z,21.70
2023-03-04T06:54:00.301Z,21.70
2023-03-04T06:56:30.385Z,21.70
2023-03-04T06:58:59.176Z,21.70
2023-03-04T07:01:29.609Z,21.70
2023-03-04T07:03:59.925Z,21.70
2023-03-04T07:06:29.877Z,21.70
2023-03-04T07:08:59.207Z,21.80
2023-03-04T07:11:29.341Z,21.80
2023-03-04T07:13:57.779Z,21.80
2023-03-04T07:16:26.348Z,21.80
2023-03-04T07:18:54.931Z,21.70
2023-03-04T07:21:23.861Z,21.70
2023-03-04T07:23:53.055Z,21.70
2023-03-04T07:26:22.086Z,21.70
2023-03-04T07:28:54.708Z,21.80
2023-03-04T07:31:27.752Z,21.70
2023-03-04T07:33:59.041Z,21.70
2023-03-04T07:36:28.359Z,21.70
2023-03-04T07:38:57.627Z,21.70
2023-03-04T07:41:28.359Z,21.70
2023-03-04T07:43:59.742Z,21.70
2023-03-04T07:46:28.371Z,21.70
2023-03-04T07:48:57.623Z,21.70
2023-03-04T07:51:28.083Z,21.70
2023-03-04T07:54:02.558Z,21.70
2023-03-04T07:56:34.021Z,21.70
2023-03-04T07:59:04.288Z,21.70
2023-03-04T08:01:34.864Z,21.70
2023-03-04T08:04:05.086Z,21.70
2023-03-04T08:06:34.595Z,21.70
2023-03-04T08:09:06.771Z,21.80
2023-03-04T08:11:37.984Z,21.70
2023-03-04T08:14:09.273Z,21.70
2023-03-04T08:16:37.892Z,21.70
2023-03-04T08:19:07.006Z,21.70
2023-03-04T08:21:36.092Z,21.70
2023-03-04T08:24:08.595Z,21.70
2023-03-04T08:26:41.879Z,21.70
2023-03-04T08:29:15.112Z,21.70
2023-03-04T08:31:48.552Z,21.70
2023-03-04T08:34:17.826Z,21.70
2023-03-04T08:36:46.525Z,21.70
2023-03-04T08:39:18.011Z,21.70
2023-03-04T08:41:47.547Z,21.70
2023-03-04T08:44:18.081Z,21.70
2023-03-04T08:46:46.907Z,21.70
2023-03-04T08:49:16.012Z,21.70
2023-03-04T08:51:45.312Z,21.70
2023-03-04T08:54:14.161Z,21.70
2023-03-04T08:56:42.863Z,21.70
2023-03-04T08:59:11.528Z,21.70
2023-03-04T09:01:43.208Z,21.70
2023-03-04T09:04:12.018Z,21.70
2023-03-04T09:06:40.578Z,21.70
2023-03-04T09:09:09.582Z,21.70
2023-03-04T09:11:38.613Z,21.70
2023-03-04T09:14:07.384Z,21.70
2023-03-04T09:16:36.073Z,21.80
2023-03-04T09:19:07.346Z,21.70
2023-03-04T09:21:36.315Z,21.80
2023-03-04T09:24:05.387Z,21.80
2023-03-04T09:26:34.045Z,21.80
2023-03-04T09:29:04.348Z,21.80
2023-03-04T09:31:33.130Z,21.80
2023-03-04T09:34:02.397Z,21.80
2023-03-04T09:36:32.355Z,21.80
2023-03-04T09:39:01.956Z,21.80
2023-03-04T09:41:40.121Z,21.80
2023-03-04T09:44:23.341Z,21.80
2023-03-04T09:46:53.147Z,21.80
2023-03-04T09:49:23.483Z,21.70
2023-03-04T09:52:04.180Z,21.70
2023-03-04T09:54:54.729Z,21.70
2023-03-04T09:57:31.988Z,21.80
2023-03-04T10:00:13.602Z,21.80
2023-03-04T10:03:06.769Z,21.70
2023-03-04T10:05:42.509Z,21.70
2023-03-04T10:08:33.092Z,21.70
2023-03-04T10:11:03.346Z,21.70
2023-03-04T10:13:39.866Z,21.80
2023-03-04T10:16:15.937Z,21.80
2023-03-04T10:18:51.588Z,21.80
2023-03-04T10:21:28.481Z,21.80
2023-03-04T10:23:59.875Z,21.80
2023-03-04T10:26:33.138Z,21.80
2023-03-04T10:29:04.834Z,21.90
2023-03-04T10:31:37.260Z,22.10
2023-03-04T10:34:07.216Z,22.30
2023-03-04T10:36:51.374Z,22.40
2023-03-04T10:39:26.108Z,22.50
2023-03-04T10:42:01.675Z,22.60
2023-03-04T11:07:57.072Z,22.70
2023-03-04T11:10:40.524Z,22.70
2023-03-04T11:13:18.461Z,22.70
2023-03-04T11:15:54.512Z,22.70
2023-03-04T11:18:30.572Z,22.60
2023-03-04T11:21:01.329Z,22.70
2023-03-04T11:23:40.747Z,22.60
2023-03-04T11:26:15.349Z,22.60
2023-03-04T11:28:49.434Z,22.60
2023-03-04T11:31:23.746Z,22.60
2023-03-04T11:33:58.291Z,22.50
2023-03-04T11:36:41.531Z,22.50
2023-03-04T11:39:23.081Z,22.50
2023-03-04T11:41:59.803Z,22.50
2023-03-04T11:44:28.284Z,22.50
2023-03-04T11:47:21.912Z,22.50
2023-03-04T11:50:18.492Z,22.40
2023-03-04T11:53:21.423Z,22.40
2023-03-04T11:56:10.604Z,22.40
2023-03-04T11:58:59.551Z,22.40
2023-03-04T12:01:37.669Z,22.40
2023-03-04T12:04:30.938Z,22.30
2023-03-04T12:07:23.137Z,22.30
2023-03-04T12:10:06.975Z,22.30
2023-03-04T12:12:56.125Z,22.30
2023-03-04T12:15:30.030Z,22.30
2023-03-04T12:18:28.077Z,22.30
2023-03-04T12:21:13.124Z,22.20
2023-03-04T12:24:07.428Z,22.20
2023-03-04T12:26:41.508Z,22.20
2023-03-04T12:29:20.472Z,22.20
2023-03-04T12:31:56.400Z,22.20
2023-03-04T12:34:51.306Z,22.20
2023-03-04T12:37:40.581Z,22.20
2023-03-04T12:40:35.696Z,22.20
2023-03-04T12:43:39.516Z,22.20
2023-03-04T12:46:24.549Z,22.20
2023-03-04T12:49:25.414Z,22.20
2023-03-04T12:52:01.995Z,22.20
2023-03-04T12:54:35.978Z,22.20
2023-03-04T12:57:10.962Z,22.20
2023-03-04T12:59:46.088Z,22.20
2023-03-04T13:02:41.484Z,22.20
2023-03-04T13:05:30.449Z,22.20
2023-03-04T13:08:09.138Z,22.20
2023-03-04T13:10:37.486Z,22.20
2023-03-04T13:13:06.143Z,22.20
2023-03-04T13:15:37.725Z,22.20
2023-03-04T13:18:32.720Z,22.20
2023-03-04T13:21:25.906Z,22.20
2023-03-04T13:23:55.450Z,22.20
2023-03-04T13:26:32.811Z,22.20
2023-03-04T13:29:36.924Z,22.20
2023-03-04T13:32:11.806Z,22.20
2023-03-04T13:34:48.578Z,22.20
2023-03-04T13:37:34.277Z,22.20
2023-03-04T13:40:34.886Z,22.20
2023-03-04T13:43:29.834Z,22.20
2023-03-04T13:45:58.277Z,22.20
2023-03-04T13:48:36.448Z,22.20
2023-03-04T13:51:28.847Z,22.20
2023-03-04T13:54:14.435Z,22.20
2023-03-04T13:56:44.787Z,22.20
2023-03-04T13:59:31.342Z,22.20
2023-03-04T14:02:11.302Z,22.20
2023-03-04T14:04:42.114Z,22.20
2023-03-04T14:07:26.066Z,22.20
2023-03-04T14:10:01.869Z,22.20
2023-03-04T14:12:34.035Z,22.30
2023-03-04T14:15:06.103Z,22.30
2023-03-04T14:17:37.646Z,22.30
2023-03-04T14:20:22.143Z,22.30
2023-03-04T14:22:52.110Z,22.20
2023-03-04T14:25:27.204Z,22.20
2023-03-04T14:28:06.198Z,22.20
2023-03-04T14:30:42.598Z,22.20
2023-03-04T14:33:19.695Z,22.20
2023-03-04T14:35:50.294Z,22.20
2023-03-04T14:38:25.930Z,22.20
2023-03-04T14:41:01.499Z,22.20
2023-03-04T14:43:32.088Z,22.20
2023-03-04T14:46:02.432Z,22.20
2023-03-04T14:48:35.080Z,22.20
2023-03-04T14:51:05.326Z,22.20
2023-03-04T14:53:36.041Z,22.20
2023-03-04T14:56:07.085Z,22.20
2023-03-04T14:58:37.625Z,22.20
2023-03-04T15:01:22.832Z,22.20
2023-03-04T15:03:59.245Z,22.20
2023-03-04T15:06:30.650Z,22.20
2023-03-04T15:09:02.782Z,22.20
2023-03-04T15:11:34.760Z,22.20
2023-03-04T15:14:03.226Z,22.20
2023-03-04T15:16:56.797Z,22.20
2023-03-04T15:19:28.227Z,22.20
2023-03-04T15:22:06.214Z,22.20
2023-03-04T15:24:35.995Z,22.20
2023-03-04T15:27:08.097Z,22.20
2023-03-04T15:29:36.644Z,22.20
2023-03-04T15:32:05.681Z,22.20
2023-03-04T15:34:34.201Z,22.20
2023-03-04T15:37:02.689Z,22.20
2023-03-04T15:39:31.132Z,22.20
2023-03-04T15:42:02.410Z,22.20
2023-03-04T15:44:31.026Z,22.20
2023-03-04T15:46:59.544Z,22.20
2023-03-04T15:49:29.768Z,22.10
2023-03-04T15:51:58.377Z,22.20
2023-03-04T15:54:29.723Z,22.20
2023-03-04T15:57:00.121Z,22.20
2023-03-04T15:59:30.064Z,22.20
2023-03-04T16:01:58.411Z,22.10
2023-03-04T16:04:27.037Z,22.20
2023-03-04T16:06:59.281Z,22.20
2023-03-04T16:09:27.625Z,22.20
2023-03-04T16:12:01.648Z,22.20
2023-03-04T16:14:31.619Z,22.20
2023-03-04T16:17:00.077Z,22.20
2023-03-04T16:19:28.441Z,22.20
2023-03-04T16:21:56.898Z,22.10
2023-03-04T16:24:25.326Z,22.20
2023-03-04T16:26:54.197Z,22.10
2023-03-04T16:29:22.566Z,22.10
2023-03-04T16:31:54.997Z,22.10
2023-03-04T16:34:23.318Z,22.10
2023-03-04T16:36:51.940Z,22.10
2023-03-04T16:39:23.674Z,22.10
2023-03-04T16:41:52.743Z,22.10
2023-03-04T16:44:21.142Z,22.10
2023-03-04T16:46:50.962Z,22.00
2023-03-04T16:49:20.570Z,22.00
2023-03-04T16:51:52.025Z,22.00
2023-03-04T16:54:28.058Z,22.00
2023-03-04T16:56:56.401Z,22.00
2023-03-04T16:59:24.840Z,22.00
2023-03-04T17:01:56.084Z,22.00
2023-03-04T17:04:24.688Z,22.00
2023-03-04T17:06:53.182Z,22.10
2023-03-04T17:09:21.673Z,22.00
2023-03-04T17:11:49.958Z,22.10
2023-03-04T17:14:18.263Z,22.10
2023-03-04T17:16:46.604Z,22.00
2023-03-04T17:19:16.337Z,22.10
2023-03-04T17:21:44.724Z,22.10
2023-03-04T17:24:13.078Z,22.10
2023-03-04T17:26:42.624Z,22.10
2023-03-04T17:29:11.567Z,22.10
2023-03-04T17:31:39.911Z,22.10
2023-03-04T17:34:08.415Z,22.10
2023-03-04T17:36:38.363Z,22.00
2023-03-04T17:39:08.578Z,22.00
2023-03-04T17:41:36.981Z,22.00
2023-03-04T17:44:06.501Z,22.00
2023-03-04T17:46:34.916Z,22.00
2023-03-04T17:49:04.382Z,22.00
2023-03-04T17:51:34.635Z,22.00
2023-03-04T17:54:05.600Z,22.00
2023-03-04T17:56:35.350Z,22.00
2023-03-04T17:59:08.788Z,22.00
2023-03-04T18:01:37.153Z,22.00
2023-03-04T18:04:06.074Z,22.00
2023-03-04T18:06:34.677Z,22.00
2023-03-04T18:09:04.956Z,22.00
2023-03-04T18:11:37.006Z,22.00
2023-03-04T18:14:06.467Z,22.00
2023-03-04T18:16:35.291Z,22.00
2023-03-04T18:19:04.660Z,22.00
2023-03-04T18:21:33.838Z,22.00
2023-03-04T18:24:03.573Z,22.00
2023-03-04T18:26:32.099Z,22.00
2023-03-04T18:29:00.540Z,22.00
2023-03-04T18:31:32.163Z,22.00
2023-03-04T18:34:01.858Z,22.00
2023-03-04T18:36:30.672Z,22.00
2023-03-04T18:38:59.659Z,22.00
2023-03-04T18:41:29.869Z,22.00
2023-03-04T18:43:58.459Z,22.00
2023-03-04T18:46:40.634Z,22.00
2023-03-04T18:49:10.154Z,22.00
2023-03-04T18:51:38.742Z,22.00
2023-03-04T18:54:07.410Z,22.00
2023-03-04T18:56:42.805Z,22.00
2023-03-04T18:59:17.270Z,22.00
2023-03-04T19:01:46.763Z,22.00
2023-03-04T19:04:16.832Z,21.90
2023-03-04T19:06:45.433Z,22.00
2023-03-04T19:09:13.788Z,21.90
2023-03-04T19:11:43.594Z,21.90
2023-03-04T19:14:12.135Z,21.90
2023-03-04T19:16:41.296Z,22.00
2023-03-04T19:19:09.787Z,22.00
2023-03-04T19:21:39.340Z,22.00
2023-03-04T19:24:08.806Z,21.90
2023-03-04T19:26:37.197Z,21.90
2023-03-04T19:29:07.321Z,21.90
2023-03-04T19:31:41.347Z,21.80
2023-03-04T19:34:10.050Z,21.80
2023-03-04T19:36:38.689Z,21.80
2023-03-04T19:39:07.768Z,21.90
2023-03-04T19:41:36.108Z,21.90
2023-03-04T19:44:05.906Z,21.90
2023-03-04T19:46:34.625Z,22.00
2023-03-04T19:49:04.702Z,22.00
2023-03-04T19:51:33.475Z,22.00
2023-03-04T19:54:02.028Z,21.90
2023-03-04T19:56:30.555Z,21.90
2023-03-04T19:58:59.176Z,22.00
2023-03-04T20:01:31.943Z,22.10
2023-03-04T20:04:03.223Z,22.10
2023-03-04T20:06:32.185Z,22.00
2023-03-04T20:09:02.092Z,22.00
2023-03-04T20:11:31.413Z,22.00
2023-03-04T20:14:01.443Z,22.00
2023-03-04T20:16:31.897Z,22.20
2023-03-04T20:19:00.544Z,22.30
2023-03-04T20:21:33.758Z,22.30
2023-03-04T20:24:02.914Z,22.40
2023-03-04T20:26:32.977Z,22.40
2023-03-04T20:29:01.511Z,22.50
2023-03-04T20:31:33.830Z,22.50
2023-03-04T20:34:02.279Z,22.50
2023-03-04T20:36:31.805Z,22.50
2023-03-04T20:39:03.536Z,22.60
2023-03-04T20:41:35.807Z,22.60
2023-03-04T20:44:04.553Z,22.60
2023-03-04T20:46:39.097Z,22.60
2023-03-04T20:49:10.247Z,22.60
2023-03-04T20:51:39.459Z,22.60
2023-03-04T20:54:09.048Z,22.60
2023-03-04T20:56:38.479Z,22.60
2023-03-04T20:59:09.688Z,22.60
2023-03-04T21:01:42.029Z,22.60
2023-03-04T21:04:10.885Z,22.50
2023-03-04T21:06:40.497Z,22.50
2023-03-04T21:09:12.489Z,22.50
2023-03-04T21:11:41.747Z,22.40
2023-03-04T21:14:15.339Z,22.40
2023-03-04T21:16:45.093Z,22.40
2023-03-04T21:19:19.180Z,22.40
2023-03-04T21:21:48.649Z,22.40
2023-03-04T21:24:19.509Z,22.30
2023-03-04T21:26:48.501Z,22.30
2023-03-04T21:29:21.326Z,22.30
2023-03-04T21:31:55.746Z,22.30
2023-03-04T21:34:39.055Z,22.30
2023-03-04T21:37:07.951Z,22.30
2023-03-04T21:39:37.261Z,22.30
2023-03-04T21:42:06.667Z,22.30
2023-03-04T21:44:48.521Z,22.30
2023-03-04T21:47:19.319Z,22.30
2023-03-04T21:49:48.242Z,22.30
2023-03-04T21:52:18.233Z,22.30
2023-03-04T21:54:47.787Z,22.30
2023-03-04T21:57:16.939Z,22.30
2023-03-04T21:59:45.896Z,22.30
2023-03-04T22:02:19.433Z,22.40
2023-03-04T22:04:48.638Z,22.60
2023-03-04T22:07:17.854Z,22.70
2023-03-04T22:09:46.473Z,22.80
2023-03-04T22:12:17.033Z,22.80
2023-03-04T22:14:46.899Z,22.80
2023-03-04T22:17:15.790Z,22.80
2023-03-04T22:19:45.613Z,22.90
2023-03-04T22:22:17.838Z,22.90
2023-03-04T22:24:48.300Z,23.00
2023-03-04T22:27:17.693Z,23.10
2023-03-04T22:29:45.946Z,23.10
2023-03-04T22:32:15.585Z,23.20
2023-03-04T22:34:45.396Z,23.20
2023-03-04T22:37:13.728Z,23.20
2023-03-04T22:39:42.668Z,23.20
2023-03-04T22:42:11.513Z,23.10
2023-03-04T22:44:39.955Z,23.00
2023-03-04T22:47:08.524Z,22.90
2023-03-04T22:49:37.863Z,22.90
2023-03-04T22:52:12.442Z,22.90
2023-03-04T22:54:41.072Z,22.80
2023-03-04T22:57:09.880Z,22.80
2023-03-04T22:59:38.555Z,22.90
2023-03-04T23:02:07.776Z,23.00
2023-03-04T23:04:36.153Z,23.00
2023-03-04T23:07:04.633Z,23.00
2023-03-04T23:09:34.270Z,23.00
2023-03-04T23:12:02.845Z,23.00
2023-03-04T23:14:31.248Z,23.00
2023-03-04T23:16:59.812Z,23.00
2023-03-04T23:19:28.294Z,23.00
2023-03-04T23:21:56.624Z,23.10
2023-03-04T23:24:26.666Z,23.10
2023-03-04T23:26:56.438Z,23.00
2023-03-04T23:29:24.907Z,23.00
2023-03-04T23:31:53.260Z,23.10
2023-03-04T23:34:22.066Z,23.30
2023-03-04T23:36:50.452Z,23.50
2023-03-04T23:39:19.462Z,23.50
2023-03-04T23:41:47.829Z,23.60
2023-03-04T23:44:18.009Z,23.60
2023-03-04T23:46:46.464Z,23.60
2023-03-04T23:49:17.811Z,23.70
2023-03-04T23:51:46.530Z,23.80
2023-03-04T23:54:16.598Z,24.10
2023-03-04T23:56:45.667Z,24.60
2023-03-04T23:59:14.162Z,24.70
